createdAt,value
2023-05-03T00:00:00.430Z,62.44
2023-05-03T00:02:28.879Z,64.97
2023-05-03T00:04:57.463Z,64.81
2023-05-03T00:07:25.658Z,62.94
2023-05-03T00:09:53.817Z,61.99
2023-05-03T00:12:22.058Z,61.34
2023-05-03T00:14:50.000Z,60.91
2023-05-03T00:17:17.866Z,60.49
2023-05-03T00:19:46.084Z,58.37
2023-05-03T00:22:14.394Z,59.06
2023-05-03T00:24:42.275Z,63.23
2023-05-03T00:27:10.328Z,64.98
2023-05-03T00:29:38.235Z,62.79
2023-05-03T00:32:06.246Z,61.09
2023-05-03T00:34:34.138Z,58.55
2023-05-03T00:37:02.146Z,58.54
2023-05-03T00:39:33.389Z,60.62
2023-05-03T00:42:04.309Z,66.33
2023-05-03T00:44:33.164Z,66.77
2023-05-03T00:47:01.891Z,63.66
2023-05-03T00:49:29.933Z,62.07
2023-05-03T00:51:59.635Z,60.90
2023-05-03T00:54:28.880Z,58.39
2023-05-03T00:56:57.579Z,58.23
2023-05-03T00:59:26.508Z,62.27
2023-05-03T01:01:54.520Z,66.25
2023-05-03T01:04:23.635Z,65.51
2023-05-03T01:07:10.581Z,63.67
2023-05-03T01:10:01.098Z,62.43
2023-05-03T01:12:35.137Z,61.14
2023-05-03T01:15:30.971Z,58.60
2023-05-03T01:18:07.986Z,58.76
2023-05-03T01:20:37.594Z,63.84
2023-05-03T01:23:14.752Z,65.30
2023-05-03T01:25:42.664Z,62.82
2023-05-03T01:28:11.054Z,60.60
2023-05-03T01:30:40.774Z,58.19
2023-05-03T01:33:36.235Z,58.08
2023-05-03T01:36:30.041Z,58.44
2023-05-03T01:39:04.648Z,65.25
2023-05-03T01:41:33.857Z,65.94
2023-05-03T01:44:04.527Z,63.09
2023-05-03T01:46:32.562Z,61.47
2023-05-03T01:49:00.463Z,58.94
2023-05-03T01:51:31.246Z,59.16
2023-05-03T01:53:59.180Z,61.07
2023-05-03T01:56:27.196Z,65.69
2023-05-03T01:58:55.116Z,67.08
2023-05-03T02:01:23.144Z,64.06
2023-05-03T02:03:51.083Z,62.05
2023-05-03T02:06:19.115Z,60.93
2023-05-03T02:08:47.191Z,58.53
2023-05-03T02:11:15.616Z,57.97
2023-05-03T02:13:43.530Z,59.73
2023-05-03T02:16:11.416Z,64.54
2023-05-03T02:18:39.925Z,67.12
2023-05-03T02:21:10.306Z,64.87
2023-05-03T02:23:38.301Z,63.37
2023-05-03T02:26:06.789Z,62.21
2023-05-03T02:28:35.309Z,61.34
2023-05-03T02:31:06.554Z,60.72
2023-05-03T02:33:34.770Z,58.49
2023-05-03T02:36:02.806Z,58.10
2023-05-03T02:38:30.672Z,59.83
2023-05-03T02:40:59.835Z,65.45
2023-05-03T02:43:27.806Z,67.43
2023-05-03T02:45:55.822Z,65.05
2023-05-03T02:48:24.787Z,63.77
2023-05-03T02:50:52.749Z,62.66
2023-05-03T02:53:21.211Z,61.88
2023-05-03T02:55:50.089Z,61.33
2023-05-03T02:58:18.177Z,61.01
2023-05-03T03:00:46.221Z,60.35
2023-05-03T03:03:15.186Z,59.00
2023-05-03T03:05:43.288Z,61.44
2023-05-03T03:08:11.161Z,64.18
2023-05-03T03:10:39.960Z,65.33
2023-05-03T03:13:07.891Z,63.37
2023-05-03T03:15:36.177Z,62.18
2023-05-03T03:18:04.458Z,61.21
2023-05-03T03:20:32.514Z,60.51
2023-05-03T03:23:00.443Z,58.58
2023-05-03T03:25:28.357Z,58.26
2023-05-03T03:27:56.988Z,59.51
2023-05-03T03:30:26.525Z,65.08
2023-05-03T03:33:03.014Z,67.07
2023-05-03T03:35:34.742Z,65.08
2023-05-03T03:38:03.473Z,63.38
2023-05-03T03:40:31.892Z,62.06
2023-05-03T03:42:59.873Z,61.23
2023-05-03T03:45:27.810Z,60.47
2023-05-03T03:47:58.292Z,58.27
2023-05-03T03:50:26.911Z,58.01
2023-05-03T03:52:54.869Z,62.60
2023-05-03T03:55:23.528Z,65.08
2023-05-03T03:57:52.952Z,63.16
2023-05-03T04:00:21.597Z,61.83
2023-05-03T04:02:51.909Z,60.85
2023-05-03T04:05:20.557Z,60.19
2023-05-03T04:07:49.647Z,57.78
2023-05-03T04:10:18.347Z,57.89
2023-05-03T04:12:46.510Z,60.05
2023-05-03T04:15:15.746Z,65.45
2023-05-03T04:17:44.211Z,66.06
2023-05-03T04:20:14.033Z,63.41
2023-05-03T04:22:45.017Z,60.89
2023-05-03T04:25:14.385Z,60.31
2023-05-03T04:27:45.226Z,58.33
2023-05-03T04:30:15.316Z,60.07
2023-05-03T04:32:43.924Z,63.90
2023-05-03T04:35:12.914Z,64.99
2023-05-03T04:37:44.515Z,63.14
2023-05-03T04:40:14.630Z,61.98
2023-05-03T04:42:44.858Z,61.12
2023-05-03T04:45:14.631Z,60.68
2023-05-03T04:47:43.329Z,60.43
2023-05-03T04:50:11.489Z,58.54
2023-05-03T04:52:41.437Z,59.74
2023-05-03T04:55:10.435Z,62.97
2023-05-03T04:57:38.886Z,63.85
2023-05-03T05:00:12.102Z,63.53
2023-05-03T05:02:43.971Z,61.82
2023-05-03T05:05:12.523Z,61.54
2023-05-03T05:07:40.906Z,62.17
2023-05-03T05:10:10.927Z,61.34
2023-05-03T05:12:38.921Z,61.17
2023-05-03T05:15:07.477Z,60.94
2023-05-03T05:17:36.055Z,60.87
2023-05-03T05:20:07.425Z,60.20
2023-05-03T05:22:35.972Z,60.08
2023-05-03T05:25:04.390Z,60.06
2023-05-03T05:27:32.854Z,61.07
2023-05-03T05:30:01.575Z,60.87
2023-05-03T05:32:32.109Z,59.95
2023-05-03T05:35:00.004Z,57.91
2023-05-03T05:37:35.429Z,59.05
2023-05-03T05:40:05.338Z,64.35
2023-05-03T05:42:37.929Z,64.22
2023-05-03T05:45:08.301Z,61.42
2023-05-03T05:47:37.348Z,59.52
2023-05-03T05:50:16.706Z,57.68
2023-05-03T05:52:46.919Z,59.64
2023-05-03T05:55:15.998Z,64.80
2023-05-03T05:57:46.203Z,64.88
2023-05-03T06:00:19.322Z,62.13
2023-05-03T06:02:48.137Z,60.14
2023-05-03T06:05:20.973Z,59.74
2023-05-03T06:07:50.283Z,58.58
2023-05-03T06:10:19.063Z,59.57
2023-05-03T06:12:51.205Z,64.11
2023-05-03T06:15:23.539Z,65.02
2023-05-03T06:17:51.601Z,63.03
2023-05-03T06:20:19.653Z,60.70
2023-05-03T06:22:49.349Z,59.03
2023-05-03T06:25:18.120Z,59.75
2023-05-03T06:27:51.433Z,63.40
2023-05-03T06:30:23.890Z,64.24
2023-05-03T06:32:52.321Z,62.04
2023-05-03T06:35:22.074Z,60.65
2023-05-03T06:37:50.991Z,59.86
2023-05-03T06:40:19.143Z,57.91
2023-05-03T06:42:47.075Z,59.37
2023-05-03T06:45:20.992Z,62.61
2023-05-03T06:47:50.457Z,62.88
2023-05-03T06:50:20.299Z,60.35
2023-05-03T06:52:49.146Z,58.45
2023-05-03T06:55:17.719Z,58.51
2023-05-03T06:57:48.387Z,63.00
2023-05-03T07:00:16.675Z,63.90
2023-05-03T07:02:44.804Z,61.60
2023-05-03T07:05:13.029Z,58.88
2023-05-03T07:07:41.055Z,58.92
2023-05-03T07:10:09.161Z,63.42
2023-05-03T07:12:37.471Z,64.95
2023-05-03T07:15:05.822Z,62.55
2023-05-03T07:17:33.817Z,60.33
2023-05-03T07:20:01.976Z,58.90
2023-05-03T07:22:30.132Z,62.50
2023-05-03T07:24:59.855Z,65.41
2023-05-03T07:27:28.321Z,63.27
2023-05-03T07:29:56.263Z,61.80
2023-05-03T07:32:24.671Z,60.27
2023-05-03T07:34:53.389Z,59.59
2023-05-03T07:37:21.616Z,59.25
2023-05-03T07:39:49.497Z,62.91
2023-05-03T07:42:17.464Z,64.65
2023-05-03T07:44:45.406Z,63.10
2023-05-03T07:47:13.279Z,61.26
2023-05-03T07:49:41.281Z,61.40
2023-05-03T07:52:09.409Z,61.88
2023-05-03T07:54:37.418Z,61.41
2023-05-03T07:57:06.385Z,60.74
2023-05-03T07:59:34.251Z,60.74
2023-05-03T08:02:02.247Z,60.85
2023-05-03T08:04:30.702Z,60.67
2023-05-03T08:07:02.924Z,61.16
2023-05-03T08:09:31.165Z,60.33
2023-05-03T08:11:59.178Z,59.04
2023-05-03T08:14:27.821Z,59.59
2023-05-03T08:16:55.728Z,63.84
2023-05-03T08:19:23.588Z,64.07
2023-05-03T08:21:52.378Z,60.65
2023-05-03T08:24:21.019Z,58.60
2023-05-03T08:26:49.327Z,59.91
2023-05-03T08:29:17.265Z,63.93
2023-05-03T08:31:45.172Z,63.17
2023-05-03T08:34:13.404Z,61.15
2023-05-03T08:36:41.678Z,60.22
2023-05-03T08:39:10.466Z,59.70
2023-05-03T08:41:39.859Z,59.35
2023-05-03T08:44:11.614Z,62.64
2023-05-03T08:46:39.562Z,63.38
2023-05-03T08:49:07.799Z,60.92
2023-05-03T08:51:40.426Z,59.08
2023-05-03T08:54:08.816Z,58.63
2023-05-03T08:56:41.810Z,59.49
2023-05-03T08:59:13.068Z,63.87
2023-05-03T09:01:42.367Z,61.70
2023-05-03T09:04:11.725Z,59.42
2023-05-03T09:06:40.368Z,57.63
2023-05-03T09:09:08.981Z,59.92
2023-05-03T09:11:39.299Z,62.64
2023-05-03T09:14:10.697Z,63.29
2023-05-03T09:16:41.116Z,59.11
2023-05-03T09:19:11.917Z,56.99
2023-05-03T09:21:42.571Z,58.44
2023-05-03T09:24:21.608Z,60.45
2023-05-03T09:26:53.249Z,62.95
2023-05-03T09:29:36.168Z,60.40
2023-05-03T09:32:05.992Z,58.35
2023-05-03T09:34:35.794Z,57.13
2023-05-03T09:37:03.779Z,58.51
2023-05-03T09:39:32.389Z,59.70
2023-05-03T09:42:10.919Z,63.03
2023-05-03T09:44:45.646Z,62.82
2023-05-03T09:47:13.578Z,58.00
2023-05-03T09:49:41.852Z,56.60
2023-05-03T09:52:09.915Z,57.98
2023-05-03T09:54:38.421Z,57.21
2023-05-03T09:57:08.081Z,61.53
2023-05-03T09:59:38.204Z,63.72
2023-05-03T10:02:08.450Z,61.29
2023-05-03T10:04:44.496Z,56.63
2023-05-03T10:07:22.217Z,57.24
2023-05-03T10:09:50.162Z,56.72
2023-05-03T10:12:19.965Z,60.57
2023-05-03T10:14:51.574Z,61.43
2023-05-03T10:17:31.937Z,61.37
2023-05-03T10:20:40.090Z,57.52
2023-05-03T10:23:10.401Z,59.52
2023-05-03T10:25:40.188Z,61.41
2023-05-03T10:28:10.066Z,62.43
2023-05-03T10:30:39.905Z,62.13
2023-05-03T10:33:14.363Z,57.67
2023-05-03T10:35:49.200Z,57.42
2023-05-03T10:38:22.078Z,59.99
2023-05-03T10:40:50.576Z,62.77
2023-05-03T10:43:33.445Z,63.08
2023-05-03T10:46:06.150Z,59.68
2023-05-03T10:48:35.277Z,59.08
2023-05-03T10:51:37.409Z,61.21
2023-05-03T10:54:05.638Z,62.91
2023-05-03T10:56:33.613Z,60.25
2023-05-03T10:59:01.737Z,58.73
2023-05-03T11:01:30.104Z,59.57
2023-05-03T11:04:12.340Z,62.19
2023-05-03T11:06:41.668Z,64.09
2023-05-03T11:09:12.300Z,61.24
2023-05-03T11:11:42.101Z,58.36
2023-05-03T11:14:11.735Z,59.13
2023-05-03T11:16:48.191Z,62.11
2023-05-03T11:19:16.973Z,63.46
2023-05-03T11:21:46.429Z,60.60
2023-05-03T11:24:15.721Z,58.92
2023-05-03T11:26:43.835Z,60.26
2023-05-03T11:29:13.344Z,62.81
2023-05-03T11:31:43.440Z,61.80
2023-05-03T11:34:13.000Z,58.78
2023-05-03T11:36:42.718Z,58.51
2023-05-03T11:39:14.721Z,61.31
2023-05-03T11:41:42.773Z,62.66
2023-05-03T11:44:16.867Z,60.81
2023-05-03T11:46:47.894Z,57.39
2023-05-03T11:49:20.117Z,59.31
2023-05-03T11:51:51.574Z,61.34
2023-05-03T11:54:26.822Z,62.74
2023-05-03T11:57:02.066Z,61.89
2023-05-03T11:59:39.944Z,58.06
2023-05-03T12:02:11.848Z,58.04
2023-05-03T12:04:42.902Z,59.96
2023-05-03T12:07:14.995Z,61.67
2023-05-03T12:09:53.258Z,63.15
2023-05-03T12:12:32.314Z,58.95
2023-05-03T12:15:03.782Z,57.92
2023-05-03T12:17:37.239Z,59.97
2023-05-03T12:22:58.545Z,62.06
2023-05-03T12:25:33.101Z,59.79
2023-05-03T12:30:36.272Z,58.29
2023-05-03T12:33:05.434Z,60.73
2023-05-03T12:35:34.518Z,62.47
2023-05-03T12:38:04.575Z,62.34
2023-05-03T12:40:34.783Z,59.45
2023-05-03T12:43:03.474Z,56.77
2023-05-03T12:45:34.588Z,59.25
2023-05-03T12:48:03.820Z,61.82
2023-05-03T12:50:32.620Z,62.91
2023-05-03T12:53:02.979Z,59.47
2023-05-03T12:55:35.465Z,58.66
2023-05-03T12:58:26.783Z,60.34
2023-05-03T13:03:32.415Z,62.22
2023-05-03T13:06:12.409Z,58.91
2023-05-03T13:08:49.685Z,58.14
2023-05-03T13:11:19.835Z,60.75
2023-05-03T13:13:48.176Z,62.77
2023-05-03T13:16:16.269Z,63.51
2023-05-03T13:18:45.591Z,57.97
2023-05-03T13:21:13.804Z,57.66
2023-05-03T13:23:41.674Z,58.91
2023-05-03T13:26:09.584Z,61.19
2023-05-03T13:28:37.507Z,63.02
2023-05-03T13:31:06.396Z,60.58
2023-05-03T13:33:38.199Z,57.47
2023-05-03T13:36:06.986Z,56.43
2023-05-03T13:38:35.664Z,59.19
2023-05-03T13:41:08.672Z,59.96
2023-05-03T13:43:36.780Z,63.00
2023-05-03T13:46:04.739Z,62.43
2023-05-03T13:48:32.817Z,56.87
2023-05-03T13:51:08.258Z,55.65
2023-05-03T13:53:36.198Z,57.98
2023-05-03T13:56:05.957Z,58.93
2023-05-03T13:58:36.401Z,59.29
2023-05-03T14:01:04.580Z,60.98
2023-05-03T14:03:34.297Z,62.87
2023-05-03T14:06:02.788Z,63.45
2023-05-03T14:08:30.751Z,58.00
2023-05-03T14:10:58.686Z,55.99
2023-05-03T14:13:29.781Z,55.95
2023-05-03T14:16:00.986Z,56.84
2023-05-03T14:18:28.994Z,58.15
2023-05-03T14:20:57.296Z,60.02
2023-05-03T14:23:26.297Z,59.80
2023-05-03T14:25:54.294Z,60.39
2023-05-03T14:28:22.296Z,60.03
2023-05-03T14:30:50.215Z,60.74
2023-05-03T14:33:18.644Z,63.20
2023-05-03T14:35:46.881Z,60.21
2023-05-03T14:38:14.864Z,56.62
2023-05-03T14:40:43.193Z,58.00
2023-05-03T14:43:11.192Z,58.70
2023-05-03T14:45:39.302Z,60.23
2023-05-03T14:48:07.535Z,61.46
2023-05-03T14:50:35.792Z,62.70
2023-05-03T14:53:03.824Z,60.68
2023-05-03T14:55:32.452Z,57.85
2023-05-03T14:58:06.712Z,56.91
2023-05-03T15:00:40.422Z,58.56
2023-05-03T15:03:11.992Z,60.19
2023-05-03T15:05:48.395Z,61.22
2023-05-03T15:08:19.432Z,63.07
2023-05-03T15:10:47.934Z,60.41
2023-05-03T15:13:16.978Z,57.46
2023-05-03T15:15:46.148Z,57.73
2023-05-03T15:18:15.733Z,57.53
2023-05-03T15:20:44.077Z,58.44
2023-05-03T15:23:12.075Z,60.79
2023-05-03T15:25:40.040Z,62.78
2023-05-03T15:28:08.093Z,63.21
2023-05-03T15:30:36.230Z,56.24
2023-05-03T15:33:05.077Z,54.72
2023-05-03T15:35:33.342Z,56.37
2023-05-03T15:38:01.478Z,55.87
2023-05-03T15:40:29.642Z,56.13
2023-05-03T15:42:57.514Z,57.86
2023-05-03T15:45:28.373Z,57.18
2023-05-03T15:47:57.127Z,58.50
2023-05-03T15:50:25.359Z,59.80
2023-05-03T15:52:53.271Z,60.06
2023-05-03T15:55:21.173Z,59.85
2023-05-03T15:57:49.075Z,59.82
2023-05-03T16:00:17.415Z,60.19
2023-05-03T16:02:45.461Z,60.06
2023-05-03T16:05:13.463Z,60.30
2023-05-03T16:07:41.450Z,65.28
2023-05-03T16:10:09.903Z,66.15
2023-05-03T16:12:37.861Z,61.28
2023-05-03T16:15:07.680Z,55.57
2023-05-03T16:17:36.747Z,54.19
2023-05-03T16:20:05.886Z,54.49
2023-05-03T16:22:34.041Z,55.99
2023-05-03T16:25:02.085Z,56.22
2023-05-03T16:27:29.988Z,56.39
2023-05-03T16:29:58.360Z,57.20
2023-05-03T16:32:26.591Z,58.15
2023-05-03T16:34:54.568Z,59.05
2023-05-03T16:37:22.541Z,59.66
2023-05-03T16:39:50.458Z,60.46
2023-05-03T16:42:19.005Z,64.50
2023-05-03T16:44:47.581Z,66.61
2023-05-03T16:47:16.082Z,62.65
2023-05-03T16:49:44.065Z,57.39
2023-05-03T16:52:12.684Z,55.53
2023-05-03T16:54:43.049Z,56.04
2023-05-03T16:57:11.016Z,56.90
2023-05-03T16:59:38.916Z,57.52
2023-05-03T17:02:06.900Z,58.42
2023-05-03T17:04:34.903Z,59.29
2023-05-03T17:07:03.144Z,59.85
2023-05-03T17:09:31.360Z,64.15
2023-05-03T17:12:00.128Z,66.90
2023-05-03T17:14:29.442Z,62.40
2023-05-03T17:16:57.535Z,56.77
2023-05-03T17:19:26.834Z,55.21
2023-05-03T17:21:55.089Z,56.08
2023-05-03T17:24:23.328Z,57.37
2023-05-03T17:26:52.194Z,58.29
2023-05-03T17:29:20.247Z,59.44
2023-05-03T17:31:48.284Z,60.27
2023-05-03T17:34:16.237Z,65.03
2023-05-03T17:36:44.218Z,66.87
2023-05-03T17:39:12.132Z,64.67
2023-05-03T17:41:40.200Z,60.27
2023-05-03T17:44:08.178Z,58.66
2023-05-03T17:46:36.581Z,59.91
2023-05-03T17:49:05.073Z,64.22
2023-05-03T17:51:33.028Z,66.50
2023-05-03T17:54:01.203Z,63.55
2023-05-03T17:56:29.169Z,61.28
2023-05-03T17:59:02.646Z,58.40
2023-05-03T18:01:30.714Z,58.11
2023-05-03T18:03:58.840Z,59.31
2023-05-03T18:06:28.200Z,64.16
2023-05-03T18:08:56.075Z,65.51
2023-05-03T18:11:24.141Z,62.53
2023-05-03T18:13:52.049Z,59.14
2023-05-03T18:16:20.033Z,58.17
2023-05-03T18:18:48.062Z,59.92
2023-05-03T18:21:16.585Z,64.72
2023-05-03T18:23:44.632Z,66.29
2023-05-03T18:26:12.611Z,63.28
2023-05-03T18:28:40.556Z,61.00
2023-05-03T18:31:08.581Z,58.29
2023-05-03T18:33:36.628Z,58.12
2023-05-03T18:36:08.998Z,60.42
2023-05-03T18:38:40.558Z,65.27
2023-05-03T18:41:16.046Z,65.69
2023-05-03T18:43:44.940Z,62.37
2023-05-03T18:46:21.766Z,60.61
2023-05-03T18:48:49.855Z,58.36
2023-05-03T18:51:18.306Z,58.84
2023-05-03T18:53:46.280Z,60.57
2023-05-03T18:56:14.550Z,65.11
2023-05-03T18:58:42.469Z,66.69
2023-05-03T19:01:10.512Z,64.13
2023-05-03T19:03:38.514Z,62.62
2023-05-03T19:06:11.467Z,60.73
2023-05-03T19:08:40.832Z,57.96
2023-05-03T19:11:10.236Z,57.72
2023-05-03T19:13:39.252Z,58.72
2023-05-03T19:16:07.365Z,63.52
2023-05-03T19:18:37.462Z,65.46
2023-05-03T19:21:05.345Z,62.90
2023-05-03T19:23:33.312Z,61.45
2023-05-03T19:26:01.355Z,58.12
2023-05-03T19:28:30.621Z,57.68
2023-05-03T19:31:02.465Z,60.00
2023-05-03T19:33:30.694Z,64.20
2023-05-03T19:35:58.895Z,65.45
2023-05-03T19:38:27.655Z,64.64
2023-05-03T19:41:00.509Z,62.98
2023-05-03T19:43:28.382Z,61.86
2023-05-03T19:45:56.484Z,59.42
2023-05-03T19:48:24.383Z,59.18
2023-05-03T19:50:54.029Z,62.86
2023-05-03T19:53:21.984Z,65.57
2023-05-03T19:56:01.429Z,64.25
2023-05-03T19:58:29.402Z,63.38
2023-05-03T20:00:58.099Z,61.12
2023-05-03T20:03:26.167Z,61.54
2023-05-03T20:05:54.528Z,59.87
2023-05-03T20:08:22.641Z,58.84
2023-05-03T20:10:51.329Z,59.69
2023-05-03T20:13:19.470Z,64.32
2023-05-03T20:15:49.306Z,66.17
2023-05-03T20:18:17.485Z,64.56
2023-05-03T20:20:46.508Z,61.92
2023-05-03T20:23:17.629Z,61.82
2023-05-03T20:25:45.597Z,62.63
2023-05-03T20:28:13.481Z,61.80
2023-05-03T20:30:41.623Z,60.33
2023-05-03T20:33:10.237Z,59.50
2023-05-03T20:35:38.419Z,59.29
2023-05-03T20:38:06.591Z,62.94
2023-05-03T20:40:34.681Z,64.56
2023-05-03T20:43:02.765Z,63.45
2023-05-03T20:45:30.762Z,62.48
2023-05-03T20:47:58.806Z,62.12
2023-05-03T20:50:27.522Z,61.60
2023-05-03T20:52:56.676Z,61.41
2023-05-03T20:55:24.638Z,62.46
2023-05-03T20:57:52.583Z,60.93
2023-05-03T21:00:22.330Z,58.97
2023-05-03T21:02:53.696Z,58.31
2023-05-03T21:05:22.107Z,62.74
2023-05-03T21:07:50.025Z,65.12
2023-05-03T21:10:17.923Z,62.98
2023-05-03T21:12:46.120Z,61.62
2023-05-03T21:15:14.021Z,60.98
2023-05-03T21:17:42.586Z,61.03
2023-05-03T21:20:10.930Z,60.45
2023-05-03T21:22:38.928Z,58.74
2023-05-03T21:25:07.469Z,61.07
2023-05-03T21:27:35.382Z,65.32
2023-05-03T21:30:03.605Z,66.27
2023-05-03T21:32:31.754Z,64.96
2023-05-03T21:34:59.730Z,63.27
2023-05-03T21:37:27.640Z,61.48
2023-05-03T21:40:02.069Z,60.33
2023-05-03T21:42:30.915Z,57.52
2023-05-03T21:44:59.164Z,57.54
2023-05-03T21:47:27.925Z,59.57
2023-05-03T21:49:55.976Z,65.68
2023-05-03T21:52:23.936Z,67.13
2023-05-03T21:54:52.687Z,64.44
2023-05-03T21:57:20.574Z,64.28
2023-05-03T21:59:49.486Z,64.01
2023-05-03T22:02:17.784Z,63.03
2023-05-03T22:04:47.405Z,62.28
2023-05-03T22:07:15.549Z,61.33
2023-05-03T22:09:47.599Z,60.23
2023-05-03T22:14:47.692Z,58.45
2023-05-03T22:17:15.697Z,61.43
2023-05-03T22:19:43.749Z,66.55
2023-05-03T22:22:11.668Z,66.22
2023-05-03T22:24:40.856Z,62.96
2023-05-03T22:27:08.839Z,61.27
2023-05-03T22:29:37.526Z,60.29
2023-05-03T22:32:06.995Z,58.41
2023-05-03T22:34:35.208Z,59.22
2023-05-03T22:37:03.259Z,61.53
2023-05-03T22:39:31.187Z,66.94
2023-05-03T22:41:59.215Z,66.83
2023-05-03T22:44:27.176Z,63.70
2023-05-03T22:46:55.685Z,61.49
2023-05-03T22:49:24.184Z,59.91
2023-05-03T22:51:52.145Z,58.08
2023-05-03T22:54:22.030Z,58.57
2023-05-03T22:56:50.740Z,61.23
2023-05-03T22:59:18.708Z,65.95
2023-05-03T23:01:49.635Z,67.23
2023-05-03T23:04:17.949Z,64.80
2023-05-03T23:06:45.890Z,61.13
2023-05-03T23:09:13.771Z,57.84
2023-05-03T23:11:41.693Z,57.50
2023-05-03T23:14:09.638Z,60.09
2023-05-03T23:16:38.904Z,64.51
2023-05-03T23:19:06.898Z,64.48
2023-05-03T23:21:34.821Z,62.11
2023-05-03T23:24:02.751Z,60.51
2023-05-03T23:26:30.710Z,57.55
2023-05-03T23:28:59.526Z,57.16
2023-05-03T23:31:28.590Z,59.10
2023-05-03T23:33:59.296Z,63.58
2023-05-03T23:36:27.946Z,64.41
2023-05-03T23:38:55.944Z,61.71
2023-05-03T23:41:23.841Z,59.71
2023-05-03T23:43:52.003Z,57.13
2023-05-03T23:46:20.022Z,57.65
2023-05-03T23:48:48.001Z,60.09
2023-05-03T23:51:15.926Z,64.78
2023-05-03T23:53:44.197Z,65.62
2023-05-03T23:56:12.538Z,62.02
2023-05-03T23:58:40.779Z,59.46
